createdAt,value
2022-09-07T03:41:05.112Z,100541.56
2022-09-07T03:44:09.039Z,100541.56
2022-09-07T03:47:12.686Z,100528.47
2022-09-07T03:50:15.622Z,100534.22
2022-09-07T03:53:18.164Z,100544.72
2022-09-07T03:56:23.390Z,100547.28
2022-09-07T03:59:26.052Z,100549.28
2022-09-07T04:02:28.915Z,100541.66
2022-09-07T04:05:32.703Z,100556.53
2022-09-07T04:08:36.919Z,100555.03
2022-09-07T04:11:40.573Z,100559.50
2022-09-07T04:14:43.590Z,100570.34
2022-09-07T04:17:46.421Z,100565.50
2022-09-07T04:20:52.249Z,100565.50
2022-09-07T04:23:55.308Z,100564.41
2022-09-07T04:26:57.947Z,100568.87
2022-09-07T04:30:00.697Z,100561.69
2022-09-07T04:33:03.232Z,100566.56
2022-09-07T04:36:06.361Z,100560.31
2022-09-07T04:39:11.038Z,100566.09
2022-09-07T04:42:13.908Z,100572.78
2022-09-07T04:45:16.510Z,100577.19
2022-09-07T04:48:19.317Z,100575.38
2022-09-07T04:51:23.462Z,100572.00
2022-09-07T04:54:26.657Z,100583.59
2022-09-07T04:57:29.480Z,100576.34
2022-09-07T05:00:32.935Z,100580.41
2022-09-07T05:03:38.494Z,100584.56
2022-09-07T05:06:41.470Z,100581.47
2022-09-07T05:09:44.252Z,100580.81
2022-09-07T05:12:47.515Z,100570.78
2022-09-07T05:15:50.098Z,100596.44
2022-09-07T05:18:54.563Z,100588.75
2022-09-07T05:21:57.515Z,100588.28
2022-09-07T05:25:00.318Z,100588.25
2022-09-07T05:28:03.919Z,100598.66
2022-09-07T05:31:19.786Z,100594.59
2022-09-07T05:37:29.235Z,100592.66
2022-09-07T05:40:36.110Z,100592.09
2022-09-07T05:47:04.681Z,100604.31
2022-09-07T05:50:09.116Z,100610.75
2022-09-07T05:53:11.662Z,100606.81
2022-09-07T05:56:15.188Z,100609.59
2022-09-07T05:59:17.894Z,100616.06
2022-09-07T06:02:20.807Z,100610.25
2022-09-07T06:05:23.635Z,100616.44
2022-09-07T06:08:26.611Z,100609.38
2022-09-07T06:11:29.424Z,100603.28
2022-09-07T06:14:32.800Z,100604.75
2022-09-07T06:17:35.626Z,100604.97
2022-09-07T06:20:38.192Z,100608.94
2022-09-07T06:23:41.871Z,100608.53
2022-09-07T06:26:44.351Z,100597.78
2022-09-07T06:29:47.171Z,100606.06
2022-09-07T06:32:49.704Z,100609.56
2022-09-07T06:35:56.724Z,100617.66
2022-09-07T06:39:01.530Z,100609.19
2022-09-07T06:42:04.543Z,100605.78
2022-09-07T06:45:07.591Z,100599.69
2022-09-07T06:48:10.384Z,100609.63
2022-09-07T06:51:22.296Z,100597.41
2022-09-07T06:57:47.963Z,100612.00
2022-09-07T07:00:50.885Z,100601.06
2022-09-07T07:03:54.276Z,100598.12
2022-09-07T07:06:57.066Z,100606.66
2022-09-07T07:09:59.659Z,100604.41
2022-09-07T07:13:02.373Z,100609.50
2022-09-07T07:16:17.007Z,100610.94
2022-09-07T07:19:20.667Z,100611.91
2022-09-07T07:22:45.594Z,100606.16
2022-09-07T07:25:46.065Z,100604.66
2022-09-07T07:29:06.550Z,100612.00
2022-09-07T07:32:09.557Z,100620.59
2022-09-07T07:35:12.645Z,100616.22
2022-09-07T07:41:55.298Z,100614.38
2022-09-07T07:51:27.865Z,100614.06
2022-09-07T07:54:30.360Z,100610.75
2022-09-07T07:57:33.045Z,100607.69
2022-09-07T08:00:53.017Z,100603.72
2022-09-07T08:03:57.104Z,100604.44
2022-09-07T08:06:59.522Z,100597.97
2022-09-07T08:10:02.249Z,100597.72
2022-09-07T08:13:05.250Z,100599.63
2022-09-07T08:16:08.651Z,100598.50
2022-09-07T08:19:11.997Z,100600.72
2022-09-07T08:22:14.799Z,100598.03
2022-09-07T08:25:17.727Z,100596.97
2022-09-07T08:28:22.198Z,100601.97
2022-09-07T08:31:24.999Z,100594.44
2022-09-07T08:34:27.817Z,100586.94
2022-09-07T08:37:30.402Z,100591.38
2022-09-07T08:40:37.915Z,100584.75
2022-09-07T08:43:57.155Z,100584.28
2022-09-07T08:47:11.623Z,100575.00
2022-09-07T08:50:28.910Z,100574.81
2022-09-07T08:53:32.218Z,100575.84
2022-09-07T08:56:39.324Z,100575.84
2022-09-07T09:00:07.116Z,100581.84
2022-09-07T09:03:29.984Z,100569.69
2022-09-07T09:07:01.334Z,100566.37
2022-09-07T09:10:10.286Z,100562.37
2022-09-07T09:13:19.272Z,100562.22
2022-09-07T09:16:34.800Z,100559.09
2022-09-07T09:20:10.778Z,100565.69
2022-09-07T09:23:16.350Z,100560.81
2022-09-07T09:26:31.025Z,100577.19
2022-09-07T09:29:34.223Z,100577.53
2022-09-07T09:32:41.522Z,100579.72
2022-09-07T09:35:47.052Z,100568.59
2022-09-07T09:38:49.914Z,100574.81
2022-09-07T09:41:53.542Z,100565.56
2022-09-07T09:45:04.025Z,100550.84
2022-09-07T09:48:11.245Z,100554.56
2022-09-07T09:54:42.145Z,100542.94
2022-09-07T10:01:22.388Z,100537.88
2022-09-07T10:04:35.171Z,100542.16
2022-09-07T10:07:37.735Z,100533.56
2022-09-07T10:10:51.042Z,100532.72
2022-09-07T10:13:57.778Z,100527.31
2022-09-07T10:17:02.093Z,100529.97
2022-09-07T10:20:16.854Z,100525.44
2022-09-07T10:23:24.306Z,100529.81
2022-09-07T10:26:33.373Z,100530.31
2022-09-07T10:29:36.344Z,100528.28
2022-09-07T10:32:54.421Z,100522.00
2022-09-07T10:36:10.684Z,100524.38
2022-09-07T10:39:26.446Z,100525.66
2022-09-07T10:42:33.527Z,100523.44
2022-09-07T10:45:57.852Z,100520.12
2022-09-07T10:49:20.347Z,100512.47
2022-09-07T10:52:29.073Z,100509.78
2022-09-07T10:55:41.715Z,100514.78
2022-09-07T10:59:03.518Z,100509.03
2022-09-07T11:02:31.063Z,100515.47
2022-09-07T11:05:38.066Z,100508.00
2022-09-07T11:09:16.663Z,100511.47
2022-09-07T11:12:29.564Z,100498.94
2022-09-07T11:15:38.438Z,100499.97
2022-09-07T11:22:23.735Z,100488.13
2022-09-07T11:25:47.302Z,100495.81
2022-09-07T11:32:24.516Z,100485.38
2022-09-07T11:36:11.983Z,100476.66
2022-09-07T11:39:45.024Z,100478.28
2022-09-07T11:42:59.561Z,100468.03
2022-09-07T11:46:08.101Z,100475.03
2022-09-07T11:49:20.150Z,100461.38
2022-09-07T11:52:35.515Z,100456.75
2022-09-07T11:55:45.058Z,100449.81
2022-09-07T11:58:59.624Z,100458.88
2022-09-07T12:02:58.265Z,100454.09
2022-09-07T12:06:22.629Z,100456.59
2022-09-07T12:09:39.134Z,100457.56
2022-09-07T12:12:57.406Z,100453.81
2022-09-07T12:16:09.357Z,100446.09
2022-09-07T12:19:21.573Z,100441.13
2022-09-07T12:22:24.356Z,100443.19
2022-09-07T12:25:29.020Z,100439.09
2022-09-07T12:28:34.608Z,100441.09
2022-09-07T12:31:58.777Z,100435.91
2022-09-07T12:35:02.485Z,100434.13
2022-09-07T12:38:31.707Z,100428.78
2022-09-07T12:41:47.344Z,100441.72
2022-09-07T12:45:28.137Z,100432.72
2022-09-07T12:49:04.677Z,100435.75
2022-09-07T12:52:33.622Z,100434.13
2022-09-07T12:56:16.370Z,100427.88
2022-09-07T12:59:28.527Z,100411.75
2022-09-07T13:02:43.812Z,100402.81
2022-09-07T13:06:11.267Z,100400.53
2022-09-07T13:09:39.410Z,100405.88
2022-09-07T13:12:57.343Z,100401.69
2022-09-07T13:16:25.214Z,100393.56
2022-09-07T13:20:06.650Z,100395.88
2022-09-07T13:23:22.906Z,100389.13
2022-09-07T13:26:58.580Z,100384.19
2022-09-07T13:30:16.686Z,100383.81
2022-09-07T13:33:28.911Z,100368.56
2022-09-07T13:36:47.683Z,100367.81
2022-09-07T13:39:54.860Z,100370.31
2022-09-07T13:42:59.256Z,100363.69
2022-09-07T13:46:09.561Z,100365.22
2022-09-07T13:49:25.213Z,100352.44
2022-09-07T13:52:40.123Z,100354.69
2022-09-07T13:56:04.096Z,100345.69
2022-09-07T13:59:26.422Z,100337.62
2022-09-07T14:02:33.383Z,100336.53
2022-09-07T14:05:36.321Z,100339.63
2022-09-07T14:08:39.911Z,100324.16
2022-09-07T14:11:49.082Z,100331.66
2022-09-07T14:15:19.796Z,100329.19
2022-09-07T14:18:30.311Z,100327.56
2022-09-07T14:21:32.847Z,100323.09
2022-09-07T14:24:40.139Z,100312.28
2022-09-07T14:27:44.460Z,100297.25
2022-09-07T14:30:50.419Z,100297.38
2022-09-07T14:33:56.751Z,100290.12
2022-09-07T14:37:04.111Z,100293.00
2022-09-07T14:40:13.413Z,100291.44
2022-09-07T14:43:30.733Z,100285.13
2022-09-07T14:46:34.335Z,100283.06
2022-09-07T14:49:37.448Z,100280.47
2022-09-07T14:53:33.106Z,100285.34
2022-09-07T14:56:10.668Z,100280.50
2022-09-07T14:59:37.856Z,100282.66
2022-09-07T15:02:40.682Z,100285.06
2022-09-07T15:05:48.460Z,100288.25
2022-09-07T15:08:51.529Z,100289.31
2022-09-07T15:12:03.987Z,100293.47
2022-09-07T15:15:26.055Z,100285.59
2022-09-07T15:18:57.091Z,100283.19
2022-09-07T15:22:00.983Z,100278.56
